createdAt,value
2017-09-25T00:02:19.371Z,12.74
2017-09-25T00:04:45.636Z,12.71
2017-09-25T00:07:11.849Z,12.62
2017-09-25T00:09:38.051Z,12.57
2017-09-25T00:12:04.303Z,12.60
2017-09-25T00:14:30.528Z,12.62
2017-09-25T00:16:56.746Z,12.61
2017-09-25T00:19:23.003Z,12.62
2017-09-25T00:21:49.227Z,12.59
2017-09-25T00:24:15.464Z,12.63
2017-09-25T00:26:41.720Z,12.62
2017-09-25T00:29:07.957Z,12.61
2017-09-25T00:31:34.187Z,12.64
2017-09-25T00:34:00.468Z,12.77
2017-09-25T00:36:26.678Z,12.71
2017-09-25T00:38:52.898Z,12.64
2017-09-25T00:41:19.168Z,12.53
2017-09-25T00:43:45.388Z,12.67
2017-09-25T00:46:11.591Z,12.69
2017-09-25T00:48:37.860Z,12.64
2017-09-25T00:51:04.087Z,12.65
2017-09-25T00:53:30.491Z,12.63
2017-09-25T00:55:56.773Z,12.68
2017-09-25T00:58:22.989Z,12.66
2017-09-25T01:00:49.219Z,12.77
2017-09-25T01:03:15.452Z,12.86
2017-09-25T01:05:41.675Z,12.85
2017-09-25T01:08:07.912Z,12.87
2017-09-25T01:10:34.152Z,12.92
2017-09-25T01:13:00.946Z,12.99
2017-09-25T01:15:27.246Z,13.06
2017-09-25T01:17:53.506Z,13.12
2017-09-25T01:20:19.713Z,13.13
2017-09-25T01:22:45.929Z,13.15
2017-09-25T01:25:12.197Z,13.13
2017-09-25T01:27:38.432Z,13.11
2017-09-25T01:30:04.643Z,13.10
2017-09-25T01:32:30.903Z,13.02
2017-09-25T01:34:57.125Z,13.04
2017-09-25T01:37:23.348Z,13.06
2017-09-25T01:39:49.616Z,13.10
2017-09-25T01:42:15.859Z,13.01
2017-09-25T01:44:42.077Z,13.07
2017-09-25T01:47:08.345Z,13.06
2017-09-25T01:49:34.588Z,13.10
2017-09-25T01:52:00.835Z,13.19
2017-09-25T01:54:27.095Z,13.28
2017-09-25T01:56:53.313Z,13.34
2017-09-25T01:59:19.534Z,13.33
2017-09-25T02:01:45.827Z,13.30
2017-09-25T02:04:12.055Z,13.28
2017-09-25T02:06:38.289Z,13.32
2017-09-25T02:09:04.565Z,13.32
2017-09-25T02:11:30.791Z,13.39
2017-09-25T02:13:57.034Z,13.38
2017-09-25T02:16:23.309Z,13.45
2017-09-25T02:18:49.544Z,13.40
2017-09-25T02:21:15.777Z,13.31
2017-09-25T02:23:42.022Z,13.32
2017-09-25T02:26:08.246Z,13.33
2017-09-25T02:28:34.453Z,13.39
2017-09-25T02:31:00.723Z,13.47
2017-09-25T02:33:26.950Z,13.50
2017-09-25T02:35:53.176Z,13.47
2017-09-25T02:38:19.433Z,13.44
2017-09-25T02:40:45.664Z,13.35
2017-09-25T02:43:11.890Z,13.26
2017-09-25T02:45:38.130Z,13.22
2017-09-25T02:48:04.325Z,13.22
2017-09-25T02:50:30.518Z,13.13
2017-09-25T02:52:56.784Z,12.92
2017-09-25T02:55:22.998Z,12.92
2017-09-25T02:57:49.232Z,12.85
2017-09-25T03:00:15.510Z,12.87
2017-09-25T03:02:41.849Z,12.96
2017-09-25T03:05:08.087Z,13.01
2017-09-25T03:07:34.471Z,13.04
2017-09-25T03:10:00.694Z,13.03
2017-09-25T03:12:26.914Z,12.92
2017-09-25T03:14:53.216Z,12.92
2017-09-25T03:17:19.639Z,13.02
2017-09-25T03:19:45.875Z,13.02
2017-09-25T03:22:12.148Z,13.04
2017-09-25T03:24:38.380Z,13.01
2017-09-25T03:27:04.606Z,12.91
2017-09-25T03:29:30.862Z,12.88
2017-09-25T03:31:57.099Z,12.81
2017-09-25T03:34:23.317Z,12.81
2017-09-25T03:36:49.609Z,12.82
2017-09-25T03:39:15.864Z,12.91
2017-09-25T03:41:42.085Z,12.98
2017-09-25T03:44:08.360Z,13.05
2017-09-25T03:46:34.583Z,13.12
2017-09-25T03:49:00.820Z,13.16
2017-09-25T03:51:27.091Z,13.13
2017-09-25T03:53:53.288Z,13.13
2017-09-25T03:56:19.519Z,13.12
2017-09-25T03:58:45.802Z,13.08
2017-09-25T04:01:12.017Z,13.13
2017-09-25T04:03:38.243Z,13.10
2017-09-25T04:06:04.525Z,13.10
2017-09-25T04:08:30.770Z,13.13
2017-09-25T04:10:56.995Z,13.20
2017-09-25T04:13:23.272Z,13.31
2017-09-25T04:15:49.507Z,13.26
2017-09-25T04:18:15.730Z,13.20
2017-09-25T04:20:41.993Z,13.14
2017-09-25T04:23:08.223Z,13.11
2017-09-25T04:25:34.464Z,13.22
2017-09-25T04:28:00.741Z,13.23
2017-09-25T04:30:26.960Z,13.25
2017-09-25T04:32:53.177Z,13.26
2017-09-25T04:35:19.439Z,13.34
2017-09-25T04:37:45.678Z,13.45
2017-09-25T04:40:11.922Z,13.53
2017-09-25T04:42:38.190Z,13.59
2017-09-25T04:45:04.433Z,13.64
2017-09-25T04:47:30.663Z,13.70
2017-09-25T04:49:56.921Z,13.71
2017-09-25T04:52:23.161Z,13.76
2017-09-25T04:54:49.391Z,13.83
2017-09-25T04:57:15.685Z,13.81
2017-09-25T04:59:41.899Z,13.88
2017-09-25T05:02:08.136Z,14.04
2017-09-25T05:04:34.441Z,14.20
2017-09-25T05:07:00.682Z,14.29
2017-09-25T05:09:26.922Z,14.38
2017-09-25T05:11:53.226Z,14.40
2017-09-25T05:14:19.472Z,14.44
2017-09-25T05:16:45.732Z,14.52
2017-09-25T05:19:12.015Z,14.44
2017-09-25T05:21:38.257Z,14.58
2017-09-25T05:24:04.480Z,14.54
2017-09-25T05:26:30.775Z,14.68
2017-09-25T05:28:56.985Z,14.80
2017-09-25T05:31:23.231Z,14.90
2017-09-25T05:33:49.515Z,14.98
2017-09-25T05:36:15.770Z,15.02
2017-09-25T05:38:41.986Z,15.00
2017-09-25T05:41:08.209Z,14.95
2017-09-25T05:43:34.575Z,15.09
2017-09-25T05:46:00.855Z,15.10
2017-09-25T05:48:27.081Z,15.24
2017-09-25T05:50:53.298Z,15.30
2017-09-25T05:53:19.599Z,15.39
2017-09-25T05:55:45.844Z,15.56
2017-09-25T05:58:12.099Z,15.74
2017-09-25T06:00:38.366Z,15.82
2017-09-25T06:03:04.592Z,15.85
2017-09-25T06:05:30.800Z,15.99
2017-09-25T06:07:57.079Z,16.27
2017-09-25T06:10:23.307Z,16.48
2017-09-25T06:12:49.543Z,16.57
2017-09-25T06:15:15.815Z,16.72
2017-09-25T06:17:42.028Z,16.82
2017-09-25T06:20:08.263Z,16.89
2017-09-25T06:22:34.531Z,17.05
2017-09-25T06:25:00.777Z,17.16
2017-09-25T06:27:27.005Z,17.25
2017-09-25T06:29:53.264Z,17.39
2017-09-25T06:32:19.499Z,17.55
2017-09-25T06:34:45.732Z,17.87
2017-09-25T06:37:13.453Z,18.10
2017-09-25T06:39:39.688Z,18.16
2017-09-25T06:42:05.918Z,18.10
2017-09-25T06:44:32.235Z,18.21
2017-09-25T06:46:58.448Z,18.20
2017-09-25T06:49:24.686Z,18.34
2017-09-25T06:51:51.078Z,18.30
2017-09-25T06:54:17.303Z,18.36
2017-09-25T06:56:43.521Z,18.40
2017-09-25T06:59:09.796Z,18.16
2017-09-25T07:01:36.029Z,18.49
2017-09-25T07:04:02.259Z,18.80
2017-09-25T07:06:28.519Z,18.80
2017-09-25T07:08:54.745Z,19.14
2017-09-25T07:11:20.970Z,19.27
2017-09-25T07:13:47.242Z,19.33
2017-09-25T07:16:13.468Z,19.46
2017-09-25T07:18:39.698Z,19.56
2017-09-25T07:21:05.983Z,19.71
2017-09-25T07:23:32.209Z,19.85
2017-09-25T07:25:58.429Z,20.20
2017-09-25T07:28:24.681Z,20.63
2017-09-25T07:30:50.904Z,21.05
2017-09-25T07:33:17.140Z,21.40
2017-09-25T07:35:43.397Z,22.07
2017-09-25T07:38:09.625Z,22.49
2017-09-25T07:40:35.848Z,22.42
2017-09-25T07:43:02.098Z,22.66
2017-09-25T07:45:28.317Z,23.07
2017-09-25T07:47:54.548Z,23.43
2017-09-25T07:50:20.814Z,24.07
2017-09-25T07:52:47.047Z,24.57
2017-09-25T07:55:13.302Z,24.20
2017-09-25T07:57:39.577Z,24.40
2017-09-25T08:00:05.833Z,24.51
2017-09-25T08:02:32.067Z,24.92
2017-09-25T08:04:58.339Z,25.52
2017-09-25T08:07:24.564Z,24.93
2017-09-25T08:09:50.805Z,24.44
2017-09-25T08:12:17.068Z,24.96
2017-09-25T08:14:43.305Z,25.40
2017-09-25T08:17:09.549Z,25.45
2017-09-25T08:19:35.818Z,26.38
2017-09-25T08:22:02.044Z,26.82
2017-09-25T08:24:28.261Z,27.28
2017-09-25T08:26:54.516Z,27.46
2017-09-25T08:29:20.744Z,27.50
2017-09-25T08:31:46.977Z,27.39
2017-09-25T08:34:13.237Z,26.73
2017-09-25T08:36:39.465Z,26.46
2017-09-25T08:39:05.692Z,26.63
2017-09-25T08:41:31.955Z,27.08
2017-09-25T08:43:58.200Z,27.15
2017-09-25T08:46:24.440Z,27.29
2017-09-25T08:48:50.810Z,27.27
2017-09-25T08:51:17.040Z,27.60
2017-09-25T08:53:43.270Z,27.95
2017-09-25T08:56:09.535Z,27.92
2017-09-25T08:58:35.778Z,28.43
2017-09-25T09:01:02.011Z,29.37
2017-09-25T09:03:28.291Z,29.73
2017-09-25T09:05:54.514Z,29.74
2017-09-25T09:08:20.742Z,30.53
2017-09-25T09:10:47.032Z,31.23
2017-09-25T09:13:13.259Z,31.32
2017-09-25T09:15:39.477Z,31.55
2017-09-25T09:18:05.760Z,31.46
2017-09-25T09:20:31.990Z,31.20
2017-09-25T09:22:58.213Z,31.61
2017-09-25T09:25:24.466Z,31.49
2017-09-25T09:27:50.695Z,32.18
2017-09-25T09:30:16.924Z,32.40
2017-09-25T09:32:43.310Z,32.78
2017-09-25T09:35:09.548Z,31.61
2017-09-25T09:37:35.781Z,29.97
2017-09-25T09:40:02.048Z,28.73
2017-09-25T09:42:28.296Z,29.12
2017-09-25T09:44:54.532Z,29.22
2017-09-25T09:47:20.789Z,29.23
2017-09-25T09:49:47.010Z,29.51
2017-09-25T09:52:13.250Z,29.63
2017-09-25T09:54:39.515Z,29.34
2017-09-25T09:57:05.733Z,28.97
2017-09-25T09:59:31.968Z,28.85
2017-09-25T10:01:58.250Z,28.91
2017-09-25T10:04:24.481Z,27.47
2017-09-25T10:06:50.771Z,27.96
2017-09-25T10:09:17.040Z,28.63
2017-09-25T10:11:43.256Z,28.73
2017-09-25T10:14:09.484Z,28.38
2017-09-25T10:16:35.741Z,28.59
2017-09-25T10:19:01.955Z,28.44
2017-09-25T10:21:28.171Z,29.25
2017-09-25T10:23:54.443Z,30.02
2017-09-25T10:26:20.669Z,30.83
2017-09-25T10:28:47.008Z,31.23
2017-09-25T10:31:13.301Z,31.74
2017-09-25T10:33:39.518Z,32.42
2017-09-25T10:36:05.751Z,32.77
2017-09-25T10:38:32.029Z,31.57
2017-09-25T10:40:58.242Z,31.70
2017-09-25T10:43:24.462Z,31.77
2017-09-25T10:45:50.719Z,32.41
2017-09-25T10:48:17.002Z,33.02
2017-09-25T10:50:43.232Z,33.47
2017-09-25T10:53:09.507Z,33.53
2017-09-25T10:55:35.723Z,33.93
2017-09-25T10:58:01.947Z,33.08
2017-09-25T11:00:28.214Z,33.73
2017-09-25T11:02:54.456Z,34.65
2017-09-25T11:05:20.674Z,34.52
2017-09-25T11:07:46.932Z,34.00
2017-09-25T11:10:13.173Z,32.73
2017-09-25T11:12:39.400Z,32.81
2017-09-25T11:15:05.676Z,33.32
2017-09-25T11:17:31.910Z,33.42
2017-09-25T11:19:58.155Z,33.20
2017-09-25T11:22:24.440Z,31.83
2017-09-25T11:24:50.658Z,31.74
2017-09-25T11:27:16.874Z,32.18
2017-09-25T11:29:43.143Z,33.45
2017-09-25T11:32:09.374Z,33.53
2017-09-25T11:34:35.590Z,33.97
2017-09-25T11:37:01.872Z,33.70
2017-09-25T11:39:28.097Z,32.22
2017-09-25T11:41:54.337Z,32.62
2017-09-25T11:44:20.581Z,32.66
2017-09-25T11:46:46.836Z,32.54
2017-09-25T11:49:13.072Z,31.68
2017-09-25T11:51:39.298Z,31.93
2017-09-25T11:54:05.519Z,31.30
2017-09-25T11:56:31.828Z,31.45
2017-09-25T11:58:58.061Z,30.38
2017-09-25T12:01:24.295Z,29.38
2017-09-25T12:03:50.570Z,29.16
2017-09-25T12:06:16.812Z,30.18
2017-09-25T12:08:43.045Z,30.13
2017-09-25T12:11:09.325Z,30.04
2017-09-25T12:13:35.538Z,30.62
2017-09-25T12:16:01.778Z,30.39
2017-09-25T12:18:28.055Z,30.05
2017-09-25T12:20:54.318Z,29.03
2017-09-25T12:23:20.553Z,28.57
2017-09-25T12:25:46.823Z,28.77
2017-09-25T12:28:13.049Z,28.32
2017-09-25T12:30:39.304Z,28.86
2017-09-25T12:33:05.564Z,28.62
2017-09-25T12:35:31.804Z,28.69
2017-09-25T12:37:58.037Z,28.67
2017-09-25T12:40:24.317Z,28.69
2017-09-25T12:42:50.565Z,29.14
2017-09-25T12:45:16.782Z,29.76
2017-09-25T12:47:43.047Z,29.15
2017-09-25T12:50:09.280Z,29.76
2017-09-25T12:52:35.701Z,29.38
2017-09-25T12:55:01.981Z,28.77
2017-09-25T12:57:28.321Z,28.04
2017-09-25T12:59:54.558Z,27.42
2017-09-25T13:02:20.833Z,27.18
2017-09-25T13:04:47.059Z,27.08
2017-09-25T13:07:13.269Z,26.88
2017-09-25T13:09:39.527Z,26.69
2017-09-25T13:12:05.753Z,27.02
2017-09-25T13:14:32.015Z,27.59
2017-09-25T13:16:58.292Z,28.26
2017-09-25T13:19:24.516Z,27.80
2017-09-25T13:21:50.892Z,27.54
2017-09-25T13:24:17.144Z,27.14
2017-09-25T13:26:43.352Z,27.06
2017-09-25T13:29:09.567Z,26.43
2017-09-25T13:31:35.818Z,26.27
2017-09-25T13:34:02.205Z,26.25
2017-09-25T13:36:28.430Z,26.12
2017-09-25T13:38:54.680Z,26.10
2017-09-25T13:41:20.905Z,26.22
2017-09-25T13:43:47.114Z,26.36
2017-09-25T13:46:13.369Z,26.54
2017-09-25T13:48:39.626Z,26.52
2017-09-25T13:51:05.845Z,26.51
2017-09-25T13:53:32.105Z,26.31
2017-09-25T13:55:58.330Z,26.11
2017-09-25T13:58:24.711Z,25.92
2017-09-25T14:03:22.446Z,25.76
2017-09-25T14:05:48.665Z,25.69
2017-09-25T14:08:14.932Z,25.73
2017-09-25T14:10:41.178Z,25.78
2017-09-25T14:13:07.423Z,25.68
2017-09-25T14:15:33.683Z,25.76
2017-09-25T14:18:00.035Z,25.74
2017-09-25T14:20:26.327Z,25.62
2017-09-25T14:22:52.728Z,25.52
2017-09-25T14:25:18.996Z,25.53
2017-09-25T14:27:45.392Z,25.53
2017-09-25T14:30:11.657Z,25.40
2017-09-25T14:32:37.897Z,25.20
2017-09-25T14:35:04.138Z,25.13
2017-09-25T14:37:30.512Z,25.09
2017-09-25T14:39:56.730Z,25.04
2017-09-25T14:42:22.969Z,24.92
2017-09-25T14:44:49.244Z,24.89
2017-09-25T14:47:15.501Z,24.83
2017-09-25T14:49:41.737Z,24.79
2017-09-25T14:52:08.014Z,24.75
2017-09-25T14:54:34.273Z,24.73
2017-09-25T14:57:00.513Z,24.72
2017-09-25T14:59:26.805Z,24.55
2017-09-25T15:01:53.021Z,24.57
2017-09-25T15:04:19.246Z,24.37
2017-09-25T15:06:45.506Z,24.33
2017-09-25T15:09:11.733Z,24.27
2017-09-25T15:11:37.964Z,24.22
2017-09-25T15:14:04.242Z,24.06
2017-09-25T15:16:30.464Z,24.12
2017-09-25T15:18:56.699Z,23.97
2017-09-25T15:21:22.973Z,23.98
2017-09-25T15:23:49.186Z,23.99
2017-09-25T15:26:15.490Z,23.92
2017-09-25T15:28:41.753Z,23.92
2017-09-25T15:31:07.980Z,23.85
2017-09-25T15:33:34.228Z,23.78
2017-09-25T15:36:00.490Z,23.77
2017-09-25T15:38:26.716Z,23.68
2017-09-25T15:40:52.929Z,23.61
2017-09-25T15:43:19.196Z,23.56
2017-09-25T15:45:45.422Z,23.48
2017-09-25T15:48:11.662Z,23.37
2017-09-25T15:50:37.915Z,23.34
2017-09-25T15:53:04.135Z,23.25
2017-09-25T15:55:30.355Z,23.20
2017-09-25T15:57:56.618Z,23.16
2017-09-25T16:00:22.829Z,23.08
2017-09-25T16:02:49.071Z,23.06
2017-09-25T16:05:15.356Z,23.02
2017-09-25T16:07:41.569Z,22.95
2017-09-25T16:10:08.001Z,22.83
2017-09-25T16:12:34.250Z,22.62
2017-09-25T16:15:00.447Z,22.53
2017-09-25T16:17:26.678Z,22.48
2017-09-25T16:19:52.944Z,22.38
2017-09-25T16:22:19.167Z,22.28
2017-09-25T16:24:45.417Z,22.17
2017-09-25T16:27:11.724Z,22.06
2017-09-25T16:29:37.987Z,21.97
2017-09-25T16:32:04.219Z,21.91
2017-09-25T16:34:30.486Z,21.84
2017-09-25T16:36:56.732Z,21.71
2017-09-25T16:39:22.970Z,21.56
2017-09-25T16:41:49.225Z,21.42
2017-09-25T16:44:15.453Z,21.23
2017-09-25T16:46:41.687Z,21.03
2017-09-25T16:49:07.941Z,20.92
2017-09-25T16:51:34.186Z,20.78
2017-09-25T16:54:00.412Z,20.66
2017-09-25T16:56:26.855Z,20.53
2017-09-25T16:58:53.098Z,20.51
2017-09-25T17:01:19.324Z,20.45
2017-09-25T17:03:45.585Z,20.40
2017-09-25T17:06:11.814Z,20.37
2017-09-25T17:08:38.039Z,20.38
2017-09-25T17:11:04.324Z,20.42
2017-09-25T17:13:30.547Z,20.40
2017-09-25T17:15:57.328Z,20.25
2017-09-25T17:18:25.292Z,20.12
2017-09-25T17:20:52.737Z,20.03
2017-09-25T17:23:19.964Z,19.96
2017-09-25T17:25:47.135Z,19.85
2017-09-25T17:28:13.937Z,19.77
2017-09-25T17:30:40.785Z,19.71
2017-09-25T17:33:07.166Z,19.69
2017-09-25T17:35:33.395Z,19.64
2017-09-25T17:37:59.608Z,19.64
2017-09-25T17:40:25.847Z,19.57
2017-09-25T17:42:52.057Z,19.58
2017-09-25T17:45:18.274Z,19.43
2017-09-25T17:47:44.529Z,19.51
2017-09-25T17:50:10.748Z,19.45
2017-09-25T17:52:37.180Z,19.35
2017-09-25T17:55:03.430Z,19.38
2017-09-25T17:57:29.630Z,19.25
2017-09-25T17:59:55.843Z,19.17
2017-09-25T18:02:22.090Z,19.06
2017-09-25T18:04:48.305Z,19.00
2017-09-25T18:07:14.536Z,18.85
2017-09-25T18:09:40.762Z,18.75
2017-09-25T18:12:06.979Z,18.68
2017-09-25T18:14:33.202Z,18.61
2017-09-25T18:16:59.470Z,18.59
2017-09-25T18:19:25.711Z,18.56
2017-09-25T18:21:51.956Z,18.37
2017-09-25T18:24:18.198Z,18.30
2017-09-25T18:26:44.416Z,18.34
2017-09-25T18:29:10.640Z,18.30
2017-09-25T18:31:36.922Z,18.32
2017-09-25T18:34:03.147Z,18.34
2017-09-25T18:36:29.384Z,18.28
2017-09-25T18:38:55.657Z,18.29
2017-09-25T18:41:21.962Z,18.29
2017-09-25T18:43:48.190Z,18.30
2017-09-25T18:46:14.465Z,18.32
2017-09-25T18:48:40.692Z,18.37
2017-09-25T18:51:06.908Z,18.47
2017-09-25T18:53:33.158Z,18.52
2017-09-25T18:55:59.369Z,18.51
2017-09-25T18:58:25.584Z,18.55
2017-09-25T19:00:51.844Z,18.53
2017-09-25T19:03:18.079Z,18.60
2017-09-25T19:05:44.287Z,18.58
2017-09-25T19:08:10.532Z,18.55
2017-09-25T19:10:36.761Z,18.57
2017-09-25T19:13:02.986Z,18.53
2017-09-25T19:15:29.245Z,18.54
2017-09-25T19:17:55.476Z,18.51
2017-09-25T19:20:21.716Z,18.52
2017-09-25T19:22:47.992Z,18.45
2017-09-25T19:25:14.237Z,18.47
2017-09-25T19:27:40.477Z,18.42
2017-09-25T19:30:06.766Z,18.35
2017-09-25T19:32:32.976Z,18.29
2017-09-25T19:34:59.210Z,18.19
2017-09-25T19:37:25.462Z,18.14
2017-09-25T19:39:51.667Z,18.14
2017-09-25T19:42:17.895Z,18.17
2017-09-25T19:44:44.153Z,18.18
2017-09-25T19:47:10.379Z,18.18
2017-09-25T19:49:36.629Z,18.07
2017-09-25T19:52:02.888Z,17.94
2017-09-25T19:54:29.118Z,17.94
2017-09-25T19:56:55.389Z,18.01
2017-09-25T19:59:21.637Z,18.04
2017-09-25T20:01:47.864Z,17.99
2017-09-25T20:04:14.090Z,18.00
2017-09-25T20:06:40.373Z,17.91
2017-09-25T20:09:06.609Z,17.88
2017-09-25T20:11:32.832Z,17.88
2017-09-25T20:13:59.093Z,17.85
2017-09-25T20:16:25.325Z,17.91
2017-09-25T20:18:51.560Z,17.99
2017-09-25T20:21:17.841Z,18.00
2017-09-25T20:23:44.112Z,17.93
2017-09-25T20:26:10.341Z,17.76
2017-09-25T20:28:36.745Z,17.80
2017-09-25T20:31:03.070Z,17.81
2017-09-25T20:33:29.300Z,17.75
2017-09-25T20:35:55.555Z,17.71
2017-09-25T20:38:21.770Z,17.70
2017-09-25T20:40:48.008Z,17.66
2017-09-25T20:43:14.260Z,17.63
2017-09-25T20:45:40.491Z,17.54
2017-09-25T20:48:06.712Z,17.56
2017-09-25T20:50:33.002Z,17.57
2017-09-25T20:52:59.256Z,17.53
2017-09-25T20:55:25.466Z,17.56
2017-09-25T20:57:51.727Z,17.62
2017-09-25T21:00:17.958Z,17.69
2017-09-25T21:02:44.176Z,17.71
2017-09-25T21:05:10.442Z,17.78
2017-09-25T21:07:36.676Z,17.82
2017-09-25T21:10:02.896Z,17.84
2017-09-25T21:12:29.166Z,17.85
2017-09-25T21:14:55.399Z,17.82
2017-09-25T21:17:21.614Z,17.83
2017-09-25T21:19:47.898Z,17.95
2017-09-25T21:22:14.110Z,17.86
2017-09-25T21:24:40.318Z,17.87
2017-09-25T21:27:06.585Z,17.80
2017-09-25T21:29:32.803Z,17.74
2017-09-25T21:34:25.098Z,17.65
2017-09-25T21:36:51.308Z,17.57
2017-09-25T21:39:17.526Z,17.58
2017-09-25T21:41:43.793Z,17.51
2017-09-25T21:44:10.007Z,17.38
2017-09-25T21:46:36.224Z,17.46
2017-09-25T21:49:02.524Z,17.29
2017-09-25T21:51:28.737Z,17.34
2017-09-25T21:53:54.955Z,17.23
2017-09-25T21:56:21.225Z,17.21
2017-09-25T21:58:47.426Z,17.24
2017-09-25T22:03:45.970Z,17.20
2017-09-25T22:06:12.193Z,17.06
2017-09-25T22:08:38.423Z,17.02
2017-09-25T22:11:04.676Z,16.93
2017-09-25T22:13:30.901Z,16.96
2017-09-25T22:15:57.132Z,16.98
2017-09-25T22:18:23.407Z,17.01
2017-09-25T22:20:49.647Z,17.07
2017-09-25T22:23:15.865Z,16.99
2017-09-25T22:25:42.115Z,16.94
2017-09-25T22:28:08.349Z,16.93
2017-09-25T22:30:34.556Z,16.95
2017-09-25T22:33:00.790Z,17.03
2017-09-25T22:35:27.024Z,17.00
2017-09-25T22:37:53.233Z,17.00
2017-09-25T22:40:19.485Z,16.95
2017-09-25T22:42:45.690Z,16.95
2017-09-25T22:45:11.923Z,16.95
2017-09-25T22:47:38.186Z,17.03
2017-09-25T22:50:04.416Z,17.11
2017-09-25T22:52:30.651Z,17.13
2017-09-25T22:54:56.924Z,17.15
2017-09-25T22:57:23.148Z,17.14
2017-09-25T22:59:49.377Z,17.06
2017-09-25T23:02:15.644Z,17.03
2017-09-25T23:04:41.860Z,16.99
2017-09-25T23:07:08.089Z,16.99
2017-09-25T23:09:34.358Z,17.08
2017-09-25T23:12:00.575Z,17.11
2017-09-25T23:14:26.781Z,17.03
2017-09-25T23:16:53.056Z,16.96
2017-09-25T23:19:19.269Z,16.91
2017-09-25T23:21:45.490Z,16.87
2017-09-25T23:24:11.759Z,16.82
2017-09-25T23:26:38.012Z,16.83
2017-09-25T23:29:04.231Z,16.83
2017-09-25T23:31:30.486Z,16.74
2017-09-25T23:33:56.701Z,16.73
2017-09-25T23:36:22.924Z,16.70
2017-09-25T23:38:49.179Z,16.70
2017-09-25T23:41:15.392Z,16.63
2017-09-25T23:43:41.597Z,16.63
2017-09-25T23:46:07.879Z,16.64
2017-09-25T23:48:34.085Z,16.59
2017-09-25T23:51:00.311Z,16.51
2017-09-25T23:53:26.531Z,16.50
2017-09-25T23:55:52.735Z,16.50
2017-09-25T23:58:18.942Z,16.58
